Nearby METAR Reports

 

KHAO - Hamilton, Ohio, USA
Distance from station: WSW 7mi, 11km
Updated: 01,27/2022 8:53pm
Overcast
Overcast
 Wind from W
Wind: W 5 mph , 7 km/h
Temperature: 32°F , 0°C
Wind Chill: 27°F , -3°C
Dew Point: 27°F , -3°C
Humidity: 80%
Barometer: 30.22 inHg , 1023.4 hPa
Clouds: Overcast
Visibility: 10 miles , 16 km
Cloud details: Few Clouds 2300 ft
Overcast 3200 ft
2022/01/28 01:53 KHAO 280153Z AUTO 27004KT 10SM FEW023 OVC032 00/M03 A3022 RMK AO2 SLP240 T00001028
KI68 - Lebanon, Ohio, USA
Distance from station: ENE 9mi, 15km
Updated: 01,27/2022 9:35pm
Mostly cloudy
Mostly cloudy
 Wind from WNW
Wind: WNW 8 mph , 13 km/h
Temperature: 32°F , 0°C
Wind Chill: 25°F , -4°C
Dew Point: 27°F , -3°C
Humidity: 80%
Barometer: 30.19 inHg , 1022.4 hPa
Clouds: Mostly cloudy
Visibility: 10 miles , 16 km
Cloud details: Partly cloudy 2200 ft
Mostly cloudy 2900 ft
2022/01/28 02:35 KI68 280235Z AUTO 30007KT 10SM SCT022 BKN029 00/M03 A3019 RMK AO1 T10051035
KMWO - Middletown/Hook, Ohio, USA
Distance from station: N 10mi, 16km
Updated: 01,27/2022 9:35pm
Overcast
Overcast
 Wind from NNW
Wind: NNW 7 mph , 11 km/h
Temperature: 30°F , -1°C
Wind Chill: 23°F , -5°C
Dew Point: 23°F , -5°C
Humidity: 75%
Barometer: 30.21 inHg , 1023 hPa
Clouds: Overcast
Visibility: 10 miles , 16 km
Cloud details: Mostly cloudy 2700 ft
Mostly cloudy 5000 ft
Overcast 12000 ft
2022/01/28 02:35 KMWO 280235Z AUTO 33006KT 10SM BKN027 BKN050 OVC120 M01/M05 A3021 RMK AO2 T10131045
 
KMGY - Dayton, Ohio, USA
Distance from station: NNE 17mi, 27km
Updated: 01,27/2022 9:03pm
Few Clouds
Few Clouds
 Wind from W
Wind: W 7 mph , 11 km/h
Temperature: 30°F , -1°C
Wind Chill: 23°F , -5°C
Dew Point: 25°F , -4°C
Humidity: 80%
Barometer: 30.17 inHg , 1021.7 hPa
Clouds: Few Clouds
Visibility: 10 miles , 16 km
Cloud details: Few Clouds 2600 ft
2022/01/28 02:03 KMGY 280203Z AUTO 28006KT 10SM FEW026 M01/M04 A3017 RMK AO2 T10061044
KLUK - Cincinnat/Lunken, Ohio, USA
Distance from station: S 20mi, 33km
Updated: 01,27/2022 8:53pm
Light snow, Overcast
Light snow, Overcast
 Wind from WSW
Wind: WSW 7 mph , 11 km/h
Temperature: 34°F , 1°C
Wind Chill: 28°F , -2°C
Dew Point: 27°F , -3°C
Humidity: 75%
Barometer: 30.22 inHg , 1023.4 hPa
Summary: Light Snow
Clouds: Overcast
Visibility: 5 miles , 8 km
Cloud details: Overcast 4000 ft
2022/01/28 01:53 KLUK 280153Z 25006KT 5SM -SN OVC040 01/M03 A3022 RMK AO2 SNB26 SLP240 P0000 T00111028
KI67 - Harrison, Ohio, USA
Distance from station: WSW 22mi, 35km
Updated: 01,27/2022 9:35pm
Overcast
Overcast
 Wind from calm
Wind: Calm
Temperature: 32°F , 0°C
Dew Point: 28°F , -2°C
Humidity: 87%
Barometer: 30.21 inHg , 1023 hPa
Clouds: Overcast
Visibility: 10 miles , 16 km
Cloud details: Mostly cloudy 2800 ft
Overcast 7500 ft
2022/01/28 02:35 KI67 280235Z AUTO 00000KT 10SM BKN028 OVC075 00/M02 A3021 RMK AO1
 
KOXD - Oxford, Ohio, USA
Distance from station: WNW 22mi, 35km
Updated: 01,27/2022 9:35pm
Overcast
Overcast
 Wind from W
Wind: W 8 mph , 13 km/h
Temperature: 30°F , -1°C
Wind Chill: 22°F , -6°C
Dew Point: 23°F , -5°C
Humidity: 75%
Barometer: 30.18 inHg , 1022 hPa
Clouds: Overcast
Visibility: 10 miles , 16 km
Cloud details: Overcast 2100 ft
2022/01/28 02:35 KOXD 280235Z AUTO 28007KT 10SM OVC021 M01/M05 A3018 RMK AO2 T10111054
KI69 - Batavia, Ohio, USA
Distance from station: SSE 23mi, 38km
Updated: 01,27/2022 9:35pm
Overcast
Overcast
 Wind from W
Wind: W 6 mph , 9 km/h
Temperature: 32°F , 0°C
Wind Chill: 26°F , -3°C
Dew Point: 28°F , -2°C
Humidity: 87%
Barometer: 30.20 inHg , 1022.7 hPa
Clouds: Overcast
Visibility: 7 miles , 11 km
Cloud details: Partly cloudy 1900 ft
Partly cloudy 2500 ft
Overcast 3700 ft
2022/01/28 02:35 KI69 280235Z AUTO 27005KT 7SM SCT019 SCT025 OVC037 00/M02 A3020 RMK AO2 T00001020
KCVG - Covington, Kentucky, USA
Distance from station: SSW 28mi, 45km
Updated: 01,27/2022 9:43pm
Light snow, Overcast
Light snow, Overcast
 Wind from W
Wind: W 6 mph , 9 km/h
Temperature: 32°F , 0°C
Wind Chill: 26°F , -3°C
Dew Point: 27°F , -3°C
Humidity: 80%
Barometer: 30.19 inHg , 1022.4 hPa
Summary: Light Snow
Clouds: Overcast
Visibility: 2 1/2 miles , 4 km
Cloud details: Mostly cloudy 1700 ft
Overcast 2200 ft
2022/01/28 02:43 KCVG 280243Z 28005KT 2 1/2SM -SN BKN017 OVC022 00/M03 A3019 RMK AO2 P0000 T00001028
 
KI19 - Dayton-Jackson, Ohio, USA
Distance from station: NE 29mi, 47km
Updated: 01,27/2022 9:15pm
Overcast
Overcast
 Wind from WNW
Wind: WNW 5 mph , 7 km/h
Temperature: 30°F , -1°C
Wind Chill: 25°F , -4°C
Dew Point: 28°F , -2°C
Humidity: 93%
Barometer: 30.19 inHg , 1022.4 hPa
Clouds: Overcast
Visibility: 10 miles , 16 km
Cloud details: Overcast 1800 ft
2022/01/28 02:15 KI19 280215Z AUTO 29004KT 10SM OVC018 M01/M02 A3019 RMK AO2 T10071021
KILN - Wilmington, Ohio, USA
Distance from station: E 32mi, 52km
Updated: 01,27/2022 8:54pm
Overcast
Overcast
 Wind from WNW
Wind: WNW 9 mph , 15 km/h
Temperature: 32°F , 0°C
Wind Chill: 24°F , -4°C
Dew Point: 25°F , -4°C
Humidity: 75%
Barometer: 30.17 inHg , 1021.7 hPa
Clouds: Overcast
Visibility: 10 miles , 16 km
Cloud details: Overcast 2500 ft
2022/01/28 01:54 KILN 280154Z AUTO 30008KT 10SM OVC025 00/M04 A3017 RMK AO2 SLP250 T00001039
KRID - Richmond, Indiana, USA
Distance from station: NW 34mi, 55km
Updated: 01,27/2022 9:35pm

 Wind from W
Wind: W 12 mph , 19 km/h
Temperature: 28°F , -2°C
Wind Chill: 18°F , -8°C
Dew Point: 27°F , -3°C
Humidity: 93%
Barometer: 30.17 inHg , 1021.7 hPa
Visibility: 10 miles , 16 km
2022/01/28 02:35 KRID 280235Z AUTO 27010KT 10SM M02/M03 A3017 RMK AO2
 
KFFO - Wright Paterson, Ohio, USA
Distance from station: NNE 35mi, 57km
Updated: 01,27/2022 9:16pm
Overcast
Overcast
 Wind from W
Wind: W 12 mph , 19 km/h
Temperature: 30°F , -1°C
Wind Chill: 20°F , -7°C
Dew Point: 21°F , -6°C
Humidity: 69%
Barometer: 30.18 inHg , 1022 hPa
Clouds: Overcast
Visibility: 10 miles , 16 km
Cloud details: Overcast 1900 ft
2022/01/28 02:16 KFFO 280216Z 26010KT 10SM OVC019 M01/M06 A3018 RMK AO2A SLP235
KDAY - Dayton, Ohio, USA
Distance from station: NNE 36mi, 58km
Updated: 01,27/2022 8:56pm
Overcast
Overcast
 Wind from W
Wind: W 13 mph , 20 km/h
Temperature: 30°F , -1°C
Wind Chill: 20°F , -7°C
Dew Point: 21°F , -6°C
Humidity: 69%
Barometer: 30.18 inHg , 1022 hPa
Clouds: Overcast
Visibility: 10 miles , 16 km
Cloud details: Overcast 1700 ft
2022/01/28 01:56 KDAY 280156Z 26011KT 10SM OVC017 M01/M06 A3018 RMK AO2 SLP235 T10061056 $
KSGH - Springfield Muni, Ohio, USA
Distance from station: NE 43mi, 69km
Updated: 01,27/2022 8:56pm
Overcast
Overcast
 Wind from W
Wind: W 12 mph , 19 km/h
Temperature: 28°F , -2°C
Wind Chill: 18°F , -8°C
Dew Point: 28°F , -2°C
Humidity: 100%
Barometer: 30.17 inHg , 1021.7 hPa
Clouds: Overcast
Visibility: 10 miles , 16 km
Cloud details: Overcast 2000 ft
2022/01/28 01:56 KSGH 280156Z AUTO 27010KT 10SM OVC020 M02/M02 A3017 RMK AO2 SLP234 T10171022 FZRANO PNO $
 
KK62 - Falmouth, Kentucky, USA
Distance from station: S 48mi, 77km
Updated: 01,27/2022 9:35pm
Overcast
Overcast
 Wind from W
Wind: W 3 mph , 6 km/h
Temperature: 32°F , 0°C
Dew Point: 23°F , -5°C
Humidity: 69%
Barometer: 30.19 inHg , 1022.4 hPa
Clouds: Overcast
Visibility: 10 miles , 16 km
Cloud details: Overcast 2900 ft
2022/01/28 02:35 KK62 280235Z AUTO 27003KT 10SM OVC029 00/M05 A3019 RMK AO2
KI23 - Washington Court, Ohio, USA
Distance from station: ENE 54mi, 86km
Updated: 01,27/2022 9:35pm
Mostly cloudy
Mostly cloudy
 Wind from W
Wind: W 8 mph , 13 km/h
Temperature: 30°F , -1°C
Wind Chill: 22°F , -6°C
Dew Point: 25°F , -4°C
Humidity: 80%
Barometer: 30.17 inHg , 1021.7 hPa
Clouds: Mostly cloudy
Visibility: 10 miles , 16 km
Cloud details: Mostly cloudy 2000 ft
2022/01/28 02:35 KI23 280235Z AUTO 26007KT 10SM BKN020 M01/M04 A3017 RMK AO1
KVES - Versailles, Ohio, USA
Distance from station: N 56mi, 90km
Updated: 01,27/2022 9:30pm
Overcast
Overcast
 Wind from WSW
Wind: WSW 6 mph , 9 km/h
Temperature: 28°F , -2°C
Wind Chill: 21°F , -6°C
Dew Point: 25°F , -4°C
Humidity: 86%
Barometer: 30.17 inHg , 1021.7 hPa
Clouds: Overcast
Visibility: 10 miles , 16 km
Cloud details: Overcast 2000 ft
2022/01/28 02:30 KVES 280230Z AUTO 25005KT 10SM OVC020 M02/M04 A3017 RMK AO2
 
KI74 - Urbana, Ohio, USA
Distance from station: NNE 62mi, 99km
Updated: 01,27/2022 9:35pm
Overcast
Overcast
 Wind from W
Wind: W 6 mph , 9 km/h
Temperature: 30°F , -1°C
Wind Chill: 24°F , -4°C
Dew Point: 27°F , -3°C
Humidity: 86%
Barometer: 30.16 inHg , 1021.3 hPa
Clouds: Overcast
Visibility: 10 miles , 16 km
Cloud details: Overcast 1400 ft
2022/01/28 02:35 KI74 280235Z AUTO 27005KT 10SM OVC014 M01/M03 A3016 RMK AO2
KUYF - London, Ohio, USA
Distance from station: NE 62mi, 100km
Updated: 01,27/2022 9:35pm
Overcast
Overcast
 Wind from W
Wind: W 9 mph , 15 km/h
Temperature: 30°F , -1°C
Wind Chill: 22°F , -6°C
Dew Point: 27°F , -3°C
Humidity: 86%
Barometer: 30.15 inHg , 1021 hPa
Clouds: Overcast
Visibility: 10 miles , 16 km
Cloud details: Overcast 1600 ft
2022/01/28 02:35 KUYF 280235Z AUTO 28008KT 10SM OVC016 M01/M03 A3015 RMK AO2